Time;durP1;ratioP1;P1;durP2;ratioP2;P2;SDS_P1;SDS_P2;PMS_P1;PMS_P2;Temp;Humidity;BMP_temperature;BMP_pressure;BME280_temperature;BME280_humidity;BME280_pressure;Samples;Min_cycle;Max_cycle;Signal;HPM_P1;HPM_P2
2021/10/31 00:02:06;;;;;;;930.80;787.25;;;;;;;;;;5067250;28;20036;-76
2021/10/31 00:04:32;;;;;;;928.45;780.42;;;;;;;;;;5065804;28;20025;-77
2021/10/31 00:06:58;;;;;;;937.63;805.00;;;;;;;;;;5065506;28;20020;-77
2021/10/31 00:09:24;;;;;;;922.95;767.47;;;;;;;;;;5067715;28;20028;-76
2021/10/31 00:11:50;;;;;;;933.85;793.35;;;;;;;;;;5065534;28;20051;-78
2021/10/31 00:14:16;;;;;;;929.45;781.28;;;;;;;;;;5068200;28;20127;-77
2021/10/31 00:16:42;;;;;;;932.28;793.53;;;;;;;;;;5068329;28;20051;-77
2021/10/31 00:19:08;;;;;;;933.90;793.08;;;;;;;;;;5086536;28;20048;-76
2021/10/31 00:21:34;;;;;;;928.65;777.80;;;;;;;;;;5082755;28;20031;-76
2021/10/31 00:24:00;;;;;;;919.83;756.88;;;;;;;;;;5058173;28;20400;-76
2021/10/31 00:26:28;;;;;;;922.30;760.90;;;;;;;;;;5057037;28;20491;-76
2021/10/31 00:28:54;;;;;;;929.40;782.10;;;;;;;;;;5070344;28;20316;-77
2021/10/31 00:31:20;;;;;;;930.08;783.67;;;;;;;;;;5070633;28;20097;-76
2021/10/31 00:33:46;;;;;;;930.03;780.42;;;;;;;;;;5069884;28;20060;-76
2021/10/31 00:36:12;;;;;;;919.15;753.03;;;;;;;;;;5068044;28;20062;-76
2021/10/31 00:38:38;;;;;;;932.63;782.85;;;;;;;;;;5070035;28;20067;-76
2021/10/31 00:41:04;;;;;;;923.42;765.38;;;;;;;;;;5070354;28;20030;-76
2021/10/31 00:43:30;;;;;;;930.83;780.72;;;;;;;;;;5080113;28;20110;-76
2021/10/31 00:45:56;;;;;;;912.15;731.50;;;;;;;;;;5063844;28;20028;-76
2021/10/31 00:48:22;;;;;;;936.00;794.33;;;;;;;;;;5065668;28;20365;-75
2021/10/31 00:50:51;;;;;;;931.90;784.53;;;;;;;;;;5062140;28;20111;-76
2021/10/31 00:53:17;;;;;;;925.43;762.37;;;;;;;;;;5070177;28;20460;-76
2021/10/31 00:55:44;;;;;;;924.60;771.42;;;;;;;;;;5083338;28;20027;-76
2021/10/31 00:58:12;;;;;;;929.70;774.20;;;;;;;;;;5087484;28;21562;-76
2021/10/31 01:00:38;;;;;;;930.80;768.33;;;;;;;;;;5085470;28;20030;-76
2021/10/31 01:03:04;;;;;;;918.70;746.20;;;;;;;;;;5086959;28;20077;-76
2021/10/31 01:05:34;;;;;;;933.70;784.08;;;;;;;;;;5064825;28;20028;-76
2021/10/31 01:08:12;;;;;;;929.50;778.92;;;;;;;;;;5077456;28;20373;-76
2021/10/31 01:10:41;;;;;;;933.90;782.00;;;;;;;;;;5069943;28;20134;-76
2021/10/31 01:13:40;;;;;;;932.70;780.15;;;;;;;;;;5082684;28;20106;-76
2021/10/31 01:16:09;;;;;;;914.35;722.35;;;;;;;;;;5007432;28;20039;-76
2021/10/31 01:19:01;;;;;;;931.13;775.72;;;;;;;;;;5070181;28;20607;-77
2021/10/31 01:21:39;;;;;;;924.22;758.08;;;;;;;;;;5087254;28;20023;-77
2021/10/31 01:24:05;;;;;;;918.80;739.70;;;;;;;;;;5078721;28;20526;-76
2021/10/31 01:26:32;;;;;;;937.60;788.33;;;;;;;;;;5069327;28;20379;-76
2021/10/31 01:29:18;;;;;;;930.60;779.20;;;;;;;;;;5087430;28;20423;-77
2021/10/31 01:32:09;;;;;;;919.58;745.40;;;;;;;;;;5069022;28;20414;-76
2021/10/31 01:34:43;;;;;;;920.78;740.05;;;;;;;;;;5068941;28;20082;-76
2021/10/31 01:37:41;;;;;;;920.88;750.63;;;;;;;;;;5075294;28;20077;-76
2021/10/31 01:40:07;;;;;;;927.75;761.67;;;;;;;;;;5031112;28;20098;-76
2021/10/31 01:42:39;;;;;;;931.97;776.42;;;;;;;;;;5074177;28;20027;-76
2021/10/31 01:45:12;;;;;;;923.38;758.33;;;;;;;;;;5090964;28;20035;-76
2021/10/31 01:47:49;;;;;;;923.28;761.40;;;;;;;;;;5085523;28;20614;-77
2021/10/31 01:50:24;;;;;;;920.58;753.85;;;;;;;;;;5091089;28;20028;-76
2021/10/31 01:52:53;;;;;;;927.85;768.30;;;;;;;;;;5085658;28;20032;-77
2021/10/31 01:55:21;;;;;;;929.40;777.70;;;;;;;;;;5076395;28;20020;-76
2021/10/31 01:57:48;;;;;;;929.20;776.72;;;;;;;;;;5080235;28;20037;-77
2021/10/31 02:00:15;;;;;;;921.53;757.40;;;;;;;;;;5074731;28;20028;-76
2021/10/31 02:02:43;;;;;;;932.78;779.20;;;;;;;;;;5072636;28;20031;-76
2021/10/31 02:05:11;;;;;;;918.58;757.60;;;;;;;;;;5063885;28;20024;-76
2021/10/31 02:07:39;;;;;;;931.88;778.67;;;;;;;;;;5074321;28;20040;-77
2021/10/31 02:10:05;;;;;;;911.05;733.03;;;;;;;;;;5075750;28;20123;-76
2021/10/31 02:12:32;;;;;;;931.38;787.05;;;;;;;;;;5075615;28;20028;-76
2021/10/31 02:14:58;;;;;;;930.00;781.55;;;;;;;;;;5085185;28;20032;-76
2021/10/31 02:17:25;;;;;;;925.35;772.38;;;;;;;;;;5081268;28;20102;-75
2021/10/31 02:19:52;;;;;;;927.65;773.72;;;;;;;;;;5075058;28;20124;-76
2021/10/31 02:22:28;;;;;;;922.95;762.97;;;;;;;;;;5071323;28;20553;-77
2021/10/31 02:24:54;;;;;;;924.25;763.97;;;;;;;;;;5075810;28;20020;-76
2021/10/31 02:27:22;;;;;;;926.53;765.97;;;;;;;;;;5075127;28;20028;-77
2021/10/31 02:29:49;;;;;;;931.90;783.67;;;;;;;;;;5075861;28;20020;-77
2021/10/31 02:32:15;;;;;;;929.45;780.97;;;;;;;;;;5075841;28;20507;-76
2021/10/31 02:34:41;;;;;;;933.83;789.47;;;;;;;;;;5086932;28;20023;-76
2021/10/31 02:37:08;;;;;;;920.15;753.97;;;;;;;;;;5083554;28;20024;-76
2021/10/31 02:39:34;;;;;;;928.92;774.30;;;;;;;;;;5075558;28;20073;-76
2021/10/31 02:42:00;;;;;;;926.95;769.75;;;;;;;;;;5073906;28;20028;-77
2021/10/31 02:44:26;;;;;;;918.40;753.42;;;;;;;;;;5062096;28;20026;-77
2021/10/31 02:46:52;;;;;;;929.92;770.25;;;;;;;;;;5091717;28;20020;-77
2021/10/31 02:49:19;;;;;;;927.28;770.22;;;;;;;;;;5069937;28;20027;-77
2021/10/31 02:51:53;;;;;;;921.42;752.90;;;;;;;;;;5090344;28;20384;-76
2021/10/31 02:54:25;;;;;;;919.03;746.05;;;;;;;;;;5071939;28;20028;-76
2021/10/31 02:57:10;;;;;;;931.40;774.03;;;;;;;;;;5071984;28;20051;-76
2021/10/31 02:59:44;;;;;;;918.83;738.53;;;;;;;;;;5066685;28;20020;-76
2021/10/31 03:02:11;;;;;;;927.17;769.60;;;;;;;;;;5085775;28;20051;-75
2021/10/31 03:04:37;;;;;;;921.47;747.08;;;;;;;;;;5068277;28;20070;-77
2021/10/31 03:07:04;;;;;;;928.08;771.78;;;;;;;;;;5068162;28;20031;-76
2021/10/31 03:09:30;;;;;;;914.92;734.85;;;;;;;;;;5086245;28;20404;-77
2021/10/31 03:12:04;;;;;;;926.55;771.70;;;;;;;;;;5070475;28;20036;-76
2021/10/31 03:14:30;;;;;;;917.15;742.08;;;;;;;;;;5066586;28;20032;-77
2021/10/31 03:16:56;;;;;;;922.85;756.20;;;;;;;;;;5084814;28;20127;-78
2021/10/31 03:19:22;;;;;;;917.55;741.25;;;;;;;;;;5063320;28;20032;-76
2021/10/31 03:21:48;;;;;;;921.67;754.45;;;;;;;;;;5085888;28;20081;-75
2021/10/31 03:24:14;;;;;;;922.47;764.85;;;;;;;;;;5085250;28;20483;-77
2021/10/31 03:26:41;;;;;;;919.88;750.55;;;;;;;;;;5085860;28;20121;-75
2021/10/31 03:29:07;;;;;;;910.90;725.72;;;;;;;;;;5073281;28;20034;-75
2021/10/31 03:31:33;;;;;;;923.17;757.92;;;;;;;;;;5066442;28;20039;-77
2021/10/31 03:33:59;;;;;;;916.72;740.17;;;;;;;;;;5083963;28;20027;-76
2021/10/31 03:36:25;;;;;;;924.95;761.47;;;;;;;;;;5070816;28;20476;-77
2021/10/31 03:38:51;;;;;;;917.25;743.47;;;;;;;;;;5083499;28;20085;-77
2021/10/31 03:41:17;;;;;;;921.88;749.70;;;;;;;;;;5084784;28;20039;-76
2021/10/31 03:43:43;;;;;;;921.92;751.67;;;;;;;;;;5070419;28;20527;-76
2021/10/31 03:46:09;;;;;;;911.90;720.95;;;;;;;;;;5066509;28;20028;-75
2021/10/31 03:48:35;;;;;;;918.63;740.78;;;;;;;;;;5060552;28;20035;-75
2021/10/31 03:51:01;;;;;;;918.15;741.58;;;;;;;;;;5066981;28;20403;-77
2021/10/31 03:53:27;;;;;;;922.13;751.03;;;;;;;;;;5067942;28;20024;-76
2021/10/31 03:55:53;;;;;;;922.95;751.03;;;;;;;;;;5067322;28;20531;-77
2021/10/31 03:58:19;;;;;;;907.67;708.67;;;;;;;;;;5068285;28;20431;-77
2021/10/31 04:00:45;;;;;;;924.85;756.22;;;;;;;;;;5085077;28;20103;-77
2021/10/31 04:03:11;;;;;;;919.28;736.40;;;;;;;;;;5081155;28;20060;-76
2021/10/31 04:05:38;;;;;;;922.53;743.58;;;;;;;;;;5064967;28;20036;-77
2021/10/31 04:08:04;;;;;;;912.63;724.53;;;;;;;;;;5064094;28;20070;-76
2021/10/31 04:10:30;;;;;;;920.88;738.10;;;;;;;;;;5069158;28;20503;-77
2021/10/31 04:12:56;;;;;;;905.03;697.85;;;;;;;;;;5070567;28;20058;-77
2021/10/31 04:15:22;;;;;;;917.08;729.97;;;;;;;;;;5070030;28;20028;-75
2021/10/31 04:17:48;;;;;;;908.22;702.25;;;;;;;;;;5086401;28;20044;-76
2021/10/31 04:20:15;;;;;;;911.35;706.05;;;;;;;;;;5070923;28;20032;-78
2021/10/31 04:22:41;;;;;;;914.40;714.38;;;;;;;;;;5070126;28;20388;-77
2021/10/31 04:25:07;;;;;;;914.20;723.17;;;;;;;;;;5084882;28;20032;-78
2021/10/31 04:27:33;;;;;;;911.83;716.67;;;;;;;;;;5088615;28;20032;-76
2021/10/31 04:29:59;;;;;;;921.50;736.67;;;;;;;;;;5070545;28;20043;-77
2021/10/31 04:32:26;;;;;;;910.47;708.67;;;;;;;;;;5070578;28;20024;-77
2021/10/31 04:34:52;;;;;;;908.65;703.42;;;;;;;;;;5069796;28;20024;-76
2021/10/31 04:37:18;;;;;;;907.08;705.78;;;;;;;;;;5066301;28;20026;-77
2021/10/31 04:39:45;;;;;;;917.60;732.55;;;;;;;;;;5088889;28;20118;-76
2021/10/31 04:42:12;;;;;;;921.10;735.22;;;;;;;;;;5069095;28;20464;-76
2021/10/31 04:44:38;;;;;;;916.80;734.50;;;;;;;;;;5076103;28;20296;-76
2021/10/31 04:47:05;;;;;;;915.38;723.03;;;;;;;;;;5067341;28;20016;-77
2021/10/31 04:49:31;;;;;;;923.88;749.75;;;;;;;;;;5078418;28;20533;-76
2021/10/31 04:51:58;;;;;;;919.80;732.20;;;;;;;;;;5087152;28;20489;-77
2021/10/31 04:54:24;;;;;;;909.90;706.15;;;;;;;;;;5088475;28;20035;-77
2021/10/31 04:56:50;;;;;;;916.45;722.20;;;;;;;;;;5079926;28;20034;-76
2021/10/31 04:59:16;;;;;;;917.47;729.13;;;;;;;;;;5088568;28;20523;-76
2021/10/31 05:01:43;;;;;;;914.90;722.13;;;;;;;;;;5087991;28;20032;-76
2021/10/31 05:04:09;;;;;;;911.92;706.65;;;;;;;;;;5088437;28;20043;-76
2021/10/31 05:06:35;;;;;;;906.95;701.50;;;;;;;;;;5073215;28;20036;-76
2021/10/31 05:09:01;;;;;;;920.83;738.28;;;;;;;;;;5062387;28;20059;-77
2021/10/31 05:11:26;;;;;;;917.28;725.25;;;;;;;;;;5052886;28;20028;-76
2021/10/31 05:13:52;;;;;;;920.05;731.83;;;;;;;;;;5071388;28;20028;-77
2021/10/31 05:16:18;;;;;;;911.58;705.53;;;;;;;;;;5070045;28;20031;-76
2021/10/31 05:18:44;;;;;;;904.92;688.90;;;;;;;;;;5086018;28;20550;-78
2021/10/31 05:21:10;;;;;;;896.20;663.95;;;;;;;;;;5069541;28;20051;-76
2021/10/31 05:23:36;;;;;;;912.90;718.25;;;;;;;;;;5063818;28;20062;-76
2021/10/31 05:26:03;;;;;;;898.83;675.30;;;;;;;;;;5087965;28;20032;-77
2021/10/31 05:28:31;;;;;;;914.30;714.00;;;;;;;;;;5058998;28;20066;-76
2021/10/31 05:30:57;;;;;;;903.97;679.83;;;;;;;;;;5075960;28;20519;-77
2021/10/31 05:33:23;;;;;;;914.42;707.03;;;;;;;;;;5076660;28;20079;-76
2021/10/31 05:35:53;;;;;;;902.88;673.42;;;;;;;;;;5065509;28;20028;-77
2021/10/31 05:38:20;;;;;;;898.22;666.28;;;;;;;;;;5066476;28;20025;-77
2021/10/31 05:40:47;;;;;;;892.58;645.72;;;;;;;;;;5064875;28;20395;-76
2021/10/31 05:43:13;;;;;;;912.75;703.75;;;;;;;;;;5069444;28;20032;-76
2021/10/31 05:45:39;;;;;;;906.10;684.42;;;;;;;;;;5052946;28;20021;-76
2021/10/31 05:48:05;;;;;;;904.72;686.58;;;;;;;;;;5047484;28;20039;-77
2021/10/31 05:50:31;;;;;;;910.33;701.58;;;;;;;;;;5060527;28;20518;-77
2021/10/31 05:52:57;;;;;;;905.22;685.30;;;;;;;;;;5069581;28;20109;-76
2021/10/31 05:55:24;;;;;;;914.40;712.58;;;;;;;;;;5069589;28;20062;-77
2021/10/31 05:57:50;;;;;;;896.45;660.42;;;;;;;;;;5072538;28;20032;-77
2021/10/31 06:00:17;;;;;;;915.20;717.85;;;;;;;;;;5068895;28;20043;-78
2021/10/31 06:02:43;;;;;;;904.78;684.22;;;;;;;;;;5067060;28;20089;-78
2021/10/31 06:05:13;;;;;;;902.22;678.13;;;;;;;;;;5085160;28;20103;-76
2021/10/31 06:07:40;;;;;;;905.17;683.78;;;;;;;;;;5069619;28;20030;-77
2021/10/31 06:10:06;;;;;;;901.47;672.97;;;;;;;;;;5064704;28;20481;-77
2021/10/31 06:12:32;;;;;;;904.90;685.78;;;;;;;;;;5061707;28;20434;-76
2021/10/31 06:14:58;;;;;;;916.72;702.53;;;;;;;;;;5053859;28;20020;-76
2021/10/31 06:17:24;;;;;;;908.70;700.08;;;;;;;;;;5078658;28;20469;-77
2021/10/31 06:19:51;;;;;;;907.72;693.78;;;;;;;;;;5080124;28;20032;-77
2021/10/31 06:22:17;;;;;;;898.85;664.60;;;;;;;;;;5067617;28;20056;-77
2021/10/31 06:24:43;;;;;;;889.95;643.92;;;;;;;;;;5066267;28;20450;-78
2021/10/31 06:27:08;;;;;;;909.97;700.00;;;;;;;;;;5072474;28;20372;-77
2021/10/31 06:29:34;;;;;;;898.35;665.58;;;;;;;;;;5079906;28;20477;-76
2021/10/31 06:32:00;;;;;;;909.30;697.08;;;;;;;;;;5078603;28;20159;-77
2021/10/31 06:34:26;;;;;;;893.03;645.05;;;;;;;;;;5087103;28;20115;-77
2021/10/31 06:36:52;;;;;;;902.75;676.45;;;;;;;;;;5057877;28;20028;-77
2021/10/31 06:39:18;;;;;;;896.25;660.60;;;;;;;;;;5078076;28;20086;-77
2021/10/31 06:41:44;;;;;;;890.67;642.10;;;;;;;;;;5068130;28;20021;-77
2021/10/31 06:44:10;;;;;;;889.88;631.15;;;;;;;;;;5086986;28;20417;-76
2021/10/31 06:46:36;;;;;;;907.05;687.60;;;;;;;;;;5062483;28;20155;-76
2021/10/31 06:49:04;;;;;;;903.95;677.35;;;;;;;;;;5076313;28;20037;-77
2021/10/31 06:51:30;;;;;;;909.67;678.13;;;;;;;;;;5077224;28;20434;-76
2021/10/31 06:53:56;;;;;;;910.33;695.90;;;;;;;;;;5059487;28;20419;-76
2021/10/31 06:56:25;;;;;;;891.78;645.72;;;;;;;;;;5067524;28;20464;-77
2021/10/31 06:58:51;;;;;;;909.97;696.75;;;;;;;;;;5072835;28;20040;-78
2021/10/31 07:01:17;;;;;;;912.72;713.17;;;;;;;;;;5060332;28;20055;-78
2021/10/31 07:03:46;;;;;;;912.50;711.58;;;;;;;;;;5058394;28;20063;-77
2021/10/31 07:06:12;;;;;;;911.90;700.97;;;;;;;;;;5089587;28;20355;-77
2021/10/31 07:08:38;;;;;;;917.40;720.30;;;;;;;;;;5053288;28;20040;-78
2021/10/31 07:11:04;;;;;;;908.45;699.83;;;;;;;;;;5077323;28;20054;-79
2021/10/31 07:13:30;;;;;;;919.42;736.53;;;;;;;;;;5068808;28;20496;-78
2021/10/31 07:15:56;;;;;;;919.95;734.28;;;;;;;;;;5065882;28;20036;-78
2021/10/31 07:18:22;;;;;;;922.40;746.38;;;;;;;;;;5082361;28;20052;-77
2021/10/31 07:20:48;;;;;;;910.10;715.88;;;;;;;;;;5080227;28;20085;-79
2021/10/31 07:23:14;;;;;;;914.95;727.60;;;;;;;;;;5072537;28;20476;-78
2021/10/31 07:25:40;;;;;;;909.03;714.95;;;;;;;;;;5090330;28;20035;-77
2021/10/31 07:28:06;;;;;;;918.33;737.65;;;;;;;;;;5072295;28;20028;-77
2021/10/31 07:30:32;;;;;;;919.78;745.47;;;;;;;;;;5072191;28;20079;-78
2021/10/31 07:33:00;;;;;;;921.03;748.67;;;;;;;;;;5090467;28;20452;-77
2021/10/31 07:35:27;;;;;;;914.20;727.05;;;;;;;;;;5054895;28;20025;-78
2021/10/31 07:37:53;;;;;;;900.78;693.40;;;;;;;;;;5082149;28;20039;-77
2021/10/31 07:40:19;;;;;;;916.72;740.63;;;;;;;;;;5071485;28;20028;-78
2021/10/31 07:42:45;;;;;;;909.03;723.60;;;;;;;;;;5090372;28;20036;-78
2021/10/31 07:45:12;;;;;;;910.90;723.25;;;;;;;;;;5071889;28;20539;-77
2021/10/31 07:47:38;;;;;;;919.47;745.88;;;;;;;;;;5069591;28;20161;-78
2021/10/31 07:50:04;;;;;;;913.15;729.30;;;;;;;;;;5088724;28;20043;-78
2021/10/31 07:52:30;;;;;;;909.60;720.40;;;;;;;;;;5079137;28;20342;-78
2021/10/31 07:54:57;;;;;;;910.50;725.15;;;;;;;;;;5089982;28;20024;-76
2021/10/31 07:57:25;;;;;;;907.95;719.13;;;;;;;;;;5088822;28;20028;-78
2021/10/31 07:59:52;;;;;;;901.92;704.17;;;;;;;;;;5071215;28;20119;-78
2021/10/31 08:02:18;;;;;;;911.72;740.00;;;;;;;;;;5075660;28;20028;-77
2021/10/31 08:04:44;;;;;;;926.60;782.83;;;;;;;;;;5071356;28;20365;-78
2021/10/31 08:07:10;;;;;;;925.28;777.63;;;;;;;;;;5065871;28;20047;-79
2021/10/31 08:09:37;;;;;;;916.97;764.22;;;;;;;;;;5073478;28;20032;-77
2021/10/31 08:12:03;;;;;;;916.58;755.38;;;;;;;;;;5086183;28;20024;-77
2021/10/31 08:14:29;;;;;;;925.10;786.05;;;;;;;;;;5069050;28;20531;-79
2021/10/31 08:16:55;;;;;;;925.72;769.92;;;;;;;;;;5086219;28;20166;-78
2021/10/31 08:19:24;;;;;;;909.72;739.17;;;;;;;;;;5084293;28;20024;-76
2021/10/31 08:21:50;;;;;;;920.35;766.33;;;;;;;;;;5062644;28;20032;-77
2021/10/31 08:24:17;;;;;;;920.55;773.22;;;;;;;;;;5086038;28;20031;-76
2021/10/31 08:26:43;;;;;;;906.53;736.60;;;;;;;;;;5084759;28;20058;-75
2021/10/31 08:29:11;;;;;;;922.30;779.15;;;;;;;;;;5074964;28;20377;-76
2021/10/31 08:31:40;;;;;;;929.67;796.20;;;;;;;;;;5072322;28;20400;-76
2021/10/31 08:34:07;;;;;;;926.80;793.80;;;;;;;;;;5069777;28;20028;-78
2021/10/31 08:36:33;;;;;;;925.78;794.78;;;;;;;;;;5087336;28;20069;-76
2021/10/31 08:39:00;;;;;;;922.00;789.63;;;;;;;;;;5070560;28;20060;-76
2021/10/31 08:41:26;;;;;;;932.13;818.60;;;;;;;;;;5070608;28;20040;-76
2021/10/31 08:43:53;;;;;;;926.20;801.83;;;;;;;;;;5072854;28;20028;-75
2021/10/31 08:46:19;;;;;;;902.65;738.63;;;;;;;;;;5069871;28;20122;-76
2021/10/31 08:48:45;;;;;;;909.53;760.08;;;;;;;;;;5068150;28;20529;-77
2021/10/31 08:51:11;;;;;;;912.15;762.63;;;;;;;;;;5088232;28;20280;-76
2021/10/31 08:53:37;;;;;;;901.53;730.83;;;;;;;;;;5069301;28;20384;-77
2021/10/31 08:56:05;;;;;;;902.67;736.10;;;;;;;;;;5081535;28;20074;-78
2021/10/31 08:58:31;;;;;;;901.63;731.30;;;;;;;;;;5070904;28;20464;-76
2021/10/31 09:00:57;;;;;;;911.15;757.33;;;;;;;;;;5081796;28;20034;-76
2021/10/31 09:03:24;;;;;;;914.05;770.83;;;;;;;;;;5072473;28;20036;-76
2021/10/31 09:05:51;;;;;;;908.42;733.85;;;;;;;;;;5068568;28;20483;-78
2021/10/31 09:08:17;;;;;;;905.40;745.90;;;;;;;;;;5069186;28;20035;-76
2021/10/31 09:10:44;;;;;;;915.15;771.83;;;;;;;;;;5088330;28;20055;-78
2021/10/31 09:13:10;;;;;;;905.90;742.05;;;;;;;;;;5068846;28;20028;-79
2021/10/31 09:15:37;;;;;;;897.00;729.85;;;;;;;;;;5087316;28;20028;-78
2021/10/31 09:18:04;;;;;;;921.65;798.28;;;;;;;;;;5068887;28;20083;-77
2021/10/31 09:20:31;;;;;;;905.00;750.67;;;;;;;;;;5069456;28;20032;-78
2021/10/31 09:22:58;;;;;;;914.05;764.78;;;;;;;;;;5087216;28;20036;-77
2021/10/31 09:25:25;;;;;;;914.30;779.22;;;;;;;;;;5088471;28;20028;-77
2021/10/31 09:27:53;;;;;;;904.83;751.47;;;;;;;;;;5069755;28;20051;-79
2021/10/31 09:30:19;;;;;;;917.22;779.95;;;;;;;;;;5069640;28;20283;-77
2021/10/31 09:32:49;;;;;;;916.90;779.03;;;;;;;;;;5069972;28;20425;-77
2021/10/31 09:35:17;;;;;;;900.28;737.92;;;;;;;;;;5069976;28;20024;-77
2021/10/31 09:37:43;;;;;;;926.88;806.03;;;;;;;;;;5087891;28;20384;-76
2021/10/31 09:40:09;;;;;;;937.28;832.60;;;;;;;;;;5070377;28;20048;-78
2021/10/31 09:42:36;;;;;;;930.40;818.00;;;;;;;;;;5069930;28;20032;-80
2021/10/31 09:45:02;;;;;;;941.33;836.38;;;;;;;;;;5068242;28;20036;-77
2021/10/31 09:47:28;;;;;;;956.58;851.92;;;;;;;;;;5047909;28;20077;-76
2021/10/31 09:49:54;;;;;;;912.83;785.13;;;;;;;;;;5049713;28;20051;-77
2021/10/31 09:52:23;;;;;;;922.78;814.38;;;;;;;;;;5050035;28;20028;-77
2021/10/31 09:54:49;;;;;;;921.22;800.17;;;;;;;;;;5074851;28;20024;-78
2021/10/31 09:57:15;;;;;;;951.70;847.30;;;;;;;;;;5087091;28;20012;-78
2021/10/31 09:59:49;;;;;;;950.13;846.15;;;;;;;;;;5092358;28;20103;-78
2021/10/31 10:02:26;;;;;;;935.28;831.08;;;;;;;;;;5074295;28;20050;-76
2021/10/31 10:04:53;;;;;;;959.47;855.15;;;;;;;;;;5091821;28;20097;-76
2021/10/31 10:07:21;;;;;;;934.38;830.85;;;;;;;;;;5092303;28;20153;-76
2021/10/31 10:09:55;;;;;;;967.58;862.75;;;;;;;;;;5092029;28;20020;-76
2021/10/31 10:12:22;;;;;;;911.00;785.72;;;;;;;;;;5091702;28;20327;-78
2021/10/31 10:15:02;;;;;;;915.47;800.60;;;;;;;;;;5073384;28;20223;-76
2021/10/31 10:17:41;;;;;;;953.15;849.08;;;;;;;;;;5071814;28;20507;-77
2021/10/31 10:20:10;;;;;;;969.58;864.95;;;;;;;;;;5073793;28;20086;-77
2021/10/31 10:22:37;;;;;;;961.75;857.55;;;;;;;;;;5073650;28;20028;-75
2021/10/31 10:25:04;;;;;;;939.97;836.90;;;;;;;;;;5090690;28;20020;-77
2021/10/31 10:27:34;;;;;;;915.75;804.47;;;;;;;;;;5061180;28;20016;-76
2021/10/31 10:30:10;;;;;;;927.60;824.45;;;;;;;;;;5088590;28;20213;-75
2021/10/31 10:32:47;;;;;;;930.03;827.55;;;;;;;;;;5069953;28;20028;-77
2021/10/31 10:35:17;;;;;;;962.50;858.58;;;;;;;;;;5062360;28;20024;-76
2021/10/31 10:37:44;;;;;;;938.15;835.22;;;;;;;;;;5081049;28;20038;-78
2021/10/31 10:40:17;;;;;;;930.40;828.25;;;;;;;;;;5087727;28;20032;-77
2021/10/31 10:42:56;;;;;;;995.28;889.88;;;;;;;;;;5061885;28;20024;-76
2021/10/31 10:45:30;;;;;;;956.30;853.33;;;;;;;;;;5085738;28;20528;-77
2021/10/31 10:48:04;;;;;;;974.67;870.63;;;;;;;;;;5087948;28;20603;-77
2021/10/31 10:50:38;;;;;;;968.35;864.75;;;;;;;;;;5090993;28;20031;-76
2021/10/31 10:53:05;;;;;;;947.45;844.78;;;;;;;;;;5091306;28;20016;-78
2021/10/31 10:55:32;;;;;;;927.47;825.60;;;;;;;;;;5067741;28;20029;-76
2021/10/31 10:57:59;;;;;;;990.83;886.03;;;;;;;;;;5070218;28;20024;-76
2021/10/31 11:00:38;;;;;;;1010.63;905.00;;;;;;;;;;5090989;28;20444;-75
2021/10/31 11:03:06;;;;;;;945.78;843.38;;;;;;;;;;5078725;28;20485;-76
2021/10/31 11:05:41;;;;;;;953.63;850.88;;;;;;;;;;5082857;28;20069;-78
2021/10/31 11:08:24;;;;;;;937.92;835.67;;;;;;;;;;5064113;28;20463;-76
2021/10/31 11:10:55;;;;;;;962.55;858.83;;;;;;;;;;5086318;28;20090;-77
2021/10/31 11:13:22;;;;;;;926.42;824.50;;;;;;;;;;5087322;28;20169;-77
2021/10/31 11:15:48;;;;;;;1007.20;901.38;;;;;;;;;;5087906;28;20016;-77
2021/10/31 11:18:15;;;;;;;979.78;875.55;;;;;;;;;;5076982;28;20403;-77
2021/10/31 11:20:42;;;;;;;1018.30;911.90;;;;;;;;;;5088264;28;20040;-78
2021/10/31 11:23:10;;;;;;;1012.47;906.35;;;;;;;;;;5064132;28;20415;-77
2021/10/31 11:25:38;;;;;;;1001.97;896.63;;;;;;;;;;5063319;28;20032;-77
2021/10/31 11:28:05;;;;;;;1018.58;912.28;;;;;;;;;;5068886;28;20369;-75
2021/10/31 11:30:33;;;;;;;967.50;864.20;;;;;;;;;;5069730;28;20020;-77
2021/10/31 11:32:59;;;;;;;1000.20;895.55;;;;;;;;;;5088888;28;20051;-78
2021/10/31 11:35:26;;;;;;;1007.58;902.38;;;;;;;;;;5086790;28;20148;-76
2021/10/31 11:38:01;;;;;;;1034.07;927.13;;;;;;;;;;5072897;28;20176;-78
2021/10/31 11:40:35;;;;;;;1035.75;929.05;;;;;;;;;;5072103;28;20020;-76
2021/10/31 11:43:03;;;;;;;986.60;882.50;;;;;;;;;;5090315;28;20565;-76
2021/10/31 11:45:36;;;;;;;947.28;844.80;;;;;;;;;;5089855;28;20024;-77
2021/10/31 11:48:08;;;;;;;1015.40;909.58;;;;;;;;;;5070098;28;20034;-76
2021/10/31 11:50:35;;;;;;;1002.50;897.28;;;;;;;;;;5088981;28;20016;-77
2021/10/31 11:53:01;;;;;;;973.13;869.47;;;;;;;;;;5089616;28;20438;-77
2021/10/31 11:55:28;;;;;;;965.95;862.80;;;;;;;;;;5089255;28;20031;-77
2021/10/31 11:58:23;;;;;;;979.90;875.10;;;;;;;;;;5089024;28;20024;-78
2021/10/31 12:00:50;;;;;;;967.50;864.08;;;;;;;;;;5059799;28;20093;-77
2021/10/31 12:03:37;;;;;;;1020.53;914.33;;;;;;;;;;5088324;28;20028;-78
2021/10/31 12:06:23;;;;;;;961.40;857.85;;;;;;;;;;5087690;28;20116;-77
2021/10/31 12:08:54;;;;;;;1008.67;903.03;;;;;;;;;;5088552;28;20107;-76
2021/10/31 12:11:40;;;;;;;994.88;890.08;;;;;;;;;;5089327;28;20024;-77
2021/10/31 12:14:08;;;;;;;1006.88;901.40;;;;;;;;;;5089553;28;20024;-79
2021/10/31 12:16:49;;;;;;;1027.68;921.22;;;;;;;;;;5089778;28;20103;-77
2021/10/31 12:19:15;;;;;;;1027.70;921.13;;;;;;;;;;5087589;28;20361;-77
2021/10/31 12:21:42;;;;;;;998.40;893.70;;;;;;;;;;5071193;28;20021;-77
2021/10/31 12:24:09;;;;;;;1016.50;910.90;;;;;;;;;;5071269;28;20020;-78
2021/10/31 12:26:36;;;;;;;1018.10;912.17;;;;;;;;;;5070711;28;20020;-77
2021/10/31 12:29:23;;;;;;;1003.67;898.38;;;;;;;;;;5071559;28;20135;-77
2021/10/31 12:31:59;;;;;;;1011.67;905.92;;;;;;;;;;5070842;28;20024;-76
2021/10/31 12:34:27;;;;;;;1011.78;906.17;;;;;;;;;;5070946;28;20548;-78
2021/10/31 12:36:54;;;;;;;1010.83;905.13;;;;;;;;;;5070386;28;20016;-77
2021/10/31 12:39:28;;;;;;;1017.97;912.05;;;;;;;;;;5071099;28;20498;-77
2021/10/31 12:42:14;;;;;;;998.38;893.30;;;;;;;;;;5070843;28;20028;-78
2021/10/31 12:44:54;;;;;;;980.90;877.00;;;;;;;;;;5074969;28;20047;-77
2021/10/31 12:47:24;;;;;;;1025.25;919.33;;;;;;;;;;5067628;28;20165;-77
2021/10/31 12:49:50;;;;;;;992.45;888.28;;;;;;;;;;5088738;28;20028;-78
2021/10/31 12:52:21;;;;;;;1006.05;901.20;;;;;;;;;;5070516;28;20067;-77
2021/10/31 12:54:54;;;;;;;1017.85;912.28;;;;;;;;;;5088689;28;20047;-78
2021/10/31 12:57:20;;;;;;;1031.25;925.22;;;;;;;;;;5088678;28;20020;-76
2021/10/31 12:59:47;;;;;;;1023.97;918.55;;;;;;;;;;5070520;28;20028;-79
2021/10/31 13:02:15;;;;;;;1032.50;926.67;;;;;;;;;;5070736;28;20028;-77
2021/10/31 13:04:48;;;;;;;1005.90;901.53;;;;;;;;;;5070201;28;20446;-77
2021/10/31 13:07:14;;;;;;;1039.47;933.13;;;;;;;;;;5070496;28;20337;-77
2021/10/31 13:09:41;;;;;;;1053.03;946.00;;;;;;;;;;5070609;28;20383;-77
2021/10/31 13:12:21;;;;;;;1044.07;937.88;;;;;;;;;;5088067;28;20016;-77
2021/10/31 13:14:47;;;;;;;1043.65;937.38;;;;;;;;;;5088357;28;20077;-77
2021/10/31 13:17:13;;;;;;;1063.75;956.50;;;;;;;;;;5086929;28;20040;-78
2021/10/31 13:19:40;;;;;;;1056.15;949.25;;;;;;;;;;5071069;28;20016;-76
2021/10/31 13:22:13;;;;;;;1043.60;937.22;;;;;;;;;;5070640;28;20020;-78
2021/10/31 13:24:45;;;;;;;1041.97;935.92;;;;;;;;;;5088711;28;20027;-78
2021/10/31 13:27:16;;;;;;;1063.47;955.90;;;;;;;;;;5070302;28;20029;-76
2021/10/31 13:29:43;;;;;;;1043.72;937.60;;;;;;;;;;5070246;28;20384;-77
2021/10/31 13:32:17;;;;;;;1036.18;930.20;;;;;;;;;;5069714;28;20028;-79
2021/10/31 13:34:45;;;;;;;1063.15;955.95;;;;;;;;;;5070305;28;20274;-79
2021/10/31 13:37:11;;;;;;;1074.63;966.67;;;;;;;;;;5085331;28;20031;-77
2021/10/31 13:39:37;;;;;;;1039.45;933.55;;;;;;;;;;5087523;28;20066;-77
2021/10/31 13:42:05;;;;;;;1070.30;962.90;;;;;;;;;;5086992;28;20164;-81
2021/10/31 13:44:36;;;;;;;1066.05;958.72;;;;;;;;;;5089030;28;20028;-78
2021/10/31 13:47:13;;;;;;;1051.43;944.72;;;;;;;;;;5069850;28;20028;-77
2021/10/31 13:49:46;;;;;;;1061.97;954.70;;;;;;;;;;5085508;28;20543;-78
2021/10/31 13:52:13;;;;;;;1037.82;932.03;;;;;;;;;;5069839;28;20028;-79
2021/10/31 13:54:44;;;;;;;1052.45;945.88;;;;;;;;;;5070153;28;20058;-78
2021/10/31 13:57:15;;;;;;;1033.93;928.22;;;;;;;;;;5088532;28;20016;-80
2021/10/31 13:59:41;;;;;;;1064.75;957.22;;;;;;;;;;5088766;28;20051;-78